sensor_id;sensor_type;location;lat;lon;timestamp;P1;durP1;ratioP1;P2;durP2;ratioP2
7199;SDS011;3641;49.082;8.200;2022-09-04T00:00:04;12.43;;;3.92;;
7199;SDS011;3641;49.082;8.200;2022-09-04T00:02:41;8.30;;;3.70;;
7199;SDS011;3641;49.082;8.200;2022-09-04T00:05:15;8.23;;;3.50;;
7199;SDS011;3641;49.082;8.200;2022-09-04T00:07:53;6.40;;;3.38;;
7199;SDS011;3641;49.082;8.200;2022-09-04T00:10:28;10.60;;;3.55;;
7199;SDS011;3641;49.082;8.200;2022-09-04T00:13:00;5.00;;;3.28;;
7199;SDS011;3641;49.082;8.200;2022-09-04T00:15:32;9.00;;;3.83;;
7199;SDS011;3641;49.082;8.200;2022-09-04T00:18:02;7.15;;;4.10;;
7199;SDS011;3641;49.082;8.200;2022-09-04T00:20:33;9.00;;;4.75;;
7199;SDS011;3641;49.082;8.200;2022-09-04T00:23:08;8.57;;;4.10;;
7199;SDS011;3641;49.082;8.200;2022-09-04T00:25:43;7.28;;;4.47;;
7199;SDS011;3641;49.082;8.200;2022-09-04T00:28:18;7.65;;;3.80;;
7199;SDS011;3641;49.082;8.200;2022-09-04T00:30:58;6.00;;;3.50;;
7199;SDS011;3641;49.082;8.200;2022-09-04T00:33:34;6.43;;;3.40;;
7199;SDS011;3641;49.082;8.200;2022-09-04T00:36:06;9.43;;;3.40;;
7199;SDS011;3641;49.082;8.200;2022-09-04T00:38:37;8.13;;;3.95;;
7199;SDS011;3641;49.082;8.200;2022-09-04T00:41:10;6.57;;;3.60;;
7199;SDS011;3641;49.082;8.200;2022-09-04T00:49:41;6.88;;;4.90;;
7199;SDS011;3641;49.082;8.200;2022-09-04T00:52:25;7.30;;;3.80;;
7199;SDS011;3641;49.082;8.200;2022-09-04T00:55:11;7.63;;;4.35;;
7199;SDS011;3641;49.082;8.200;2022-09-04T01:00:48;4.82;;;2.80;;
7199;SDS011;3641;49.082;8.200;2022-09-04T01:03:21;4.57;;;2.70;;
7199;SDS011;3641;49.082;8.200;2022-09-04T01:06:11;4.25;;;2.05;;
7199;SDS011;3641;49.082;8.200;2022-09-04T01:11:51;12.07;;;1.83;;
7199;SDS011;3641;49.082;8.200;2022-09-04T01:14:33;7.47;;;1.70;;
7199;SDS011;3641;49.082;8.200;2022-09-04T01:17:08;4.32;;;1.75;;
7199;SDS011;3641;49.082;8.200;2022-09-04T01:19:45;5.80;;;2.03;;
7199;SDS011;3641;49.082;8.200;2022-09-04T01:22:25;4.25;;;1.90;;
7199;SDS011;3641;49.082;8.200;2022-09-04T01:25:08;7.45;;;1.80;;
7199;SDS011;3641;49.082;8.200;2022-09-04T01:27:48;8.23;;;2.03;;
7199;SDS011;3641;49.082;8.200;2022-09-04T01:30:21;6.72;;;1.90;;
7199;SDS011;3641;49.082;8.200;2022-09-04T01:32:52;5.93;;;2.20;;
7199;SDS011;3641;49.082;8.200;2022-09-04T01:35:26;3.75;;;1.60;;
7199;SDS011;3641;49.082;8.200;2022-09-04T01:38:01;4.30;;;1.58;;
7199;SDS011;3641;49.082;8.200;2022-09-04T01:40:39;3.47;;;1.80;;
7199;SDS011;3641;49.082;8.200;2022-09-04T01:43:11;10.00;;;1.70;;
7199;SDS011;3641;49.082;8.200;2022-09-04T01:45:45;6.45;;;2.05;;
7199;SDS011;3641;49.082;8.200;2022-09-04T01:48:26;8.43;;;1.90;;
7199;SDS011;3641;49.082;8.200;2022-09-04T01:51:01;3.38;;;1.75;;
7199;SDS011;3641;49.082;8.200;2022-09-04T01:53:38;8.02;;;1.90;;
7199;SDS011;3641;49.082;8.200;2022-09-04T01:56:11;3.60;;;1.88;;
7199;SDS011;3641;49.082;8.200;2022-09-04T01:58:46;5.15;;;2.10;;
7199;SDS011;3641;49.082;8.200;2022-09-04T02:01:22;7.82;;;2.00;;
7199;SDS011;3641;49.082;8.200;2022-09-04T02:04:02;2.88;;;1.83;;
7199;SDS011;3641;49.082;8.200;2022-09-04T02:06:35;3.20;;;1.70;;
7199;SDS011;3641;49.082;8.200;2022-09-04T02:09:15;6.25;;;1.90;;
7199;SDS011;3641;49.082;8.200;2022-09-04T02:11:52;2.97;;;1.90;;
7199;SDS011;3641;49.082;8.200;2022-09-04T02:14:33;4.38;;;1.75;;
7199;SDS011;3641;49.082;8.200;2022-09-04T02:17:09;7.93;;;1.92;;
7199;SDS011;3641;49.082;8.200;2022-09-04T02:19:57;5.53;;;1.92;;
7199;SDS011;3641;49.082;8.200;2022-09-04T02:22:32;2.45;;;1.65;;
7199;SDS011;3641;49.082;8.200;2022-09-04T02:25:10;4.15;;;1.73;;
7199;SDS011;3641;49.082;8.200;2022-09-04T02:27:48;7.25;;;1.90;;
7199;SDS011;3641;49.082;8.200;2022-09-04T02:30:20;6.05;;;1.90;;
7199;SDS011;3641;49.082;8.200;2022-09-04T02:32:49;3.25;;;1.80;;
7199;SDS011;3641;49.082;8.200;2022-09-04T02:35:22;5.30;;;2.13;;
7199;SDS011;3641;49.082;8.200;2022-09-04T02:37:59;7.93;;;2.00;;
7199;SDS011;3641;49.082;8.200;2022-09-04T02:40:37;4.18;;;2.28;;
7199;SDS011;3641;49.082;8.200;2022-09-04T02:43:20;5.30;;;2.55;;
7199;SDS011;3641;49.082;8.200;2022-09-04T02:45:59;6.35;;;3.10;;
7199;SDS011;3641;49.082;8.200;2022-09-04T02:48:30;5.65;;;2.90;;
7199;SDS011;3641;49.082;8.200;2022-09-04T02:51:12;7.45;;;2.88;;
7199;SDS011;3641;49.082;8.200;2022-09-04T02:53:51;5.47;;;2.92;;
7199;SDS011;3641;49.082;8.200;2022-09-04T02:56:26;3.95;;;2.92;;
7199;SDS011;3641;49.082;8.200;2022-09-04T02:59:21;9.05;;;3.15;;
7199;SDS011;3641;49.082;8.200;2022-09-04T03:01:57;9.55;;;3.03;;
7199;SDS011;3641;49.082;8.200;2022-09-04T03:04:27;6.93;;;2.88;;
7199;SDS011;3641;49.082;8.200;2022-09-04T03:07:00;6.13;;;2.88;;
7199;SDS011;3641;49.082;8.200;2022-09-04T03:09:31;5.18;;;3.15;;
7199;SDS011;3641;49.082;8.200;2022-09-04T03:12:10;5.18;;;3.30;;
7199;SDS011;3641;49.082;8.200;2022-09-04T03:14:50;8.27;;;3.30;;
7199;SDS011;3641;49.082;8.200;2022-09-04T03:17:26;6.20;;;2.78;;
7199;SDS011;3641;49.082;8.200;2022-09-04T03:19:59;7.55;;;3.10;;
7199;SDS011;3641;49.082;8.200;2022-09-04T03:22:32;5.57;;;2.85;;
7199;SDS011;3641;49.082;8.200;2022-09-04T03:25:07;7.60;;;3.13;;
7199;SDS011;3641;49.082;8.200;2022-09-04T03:27:53;4.25;;;2.90;;
7199;SDS011;3641;49.082;8.200;2022-09-04T03:30:19;6.05;;;2.80;;
7199;SDS011;3641;49.082;8.200;2022-09-04T03:32:49;4.35;;;2.85;;
7199;SDS011;3641;49.082;8.200;2022-09-04T03:35:28;7.80;;;3.63;;
7199;SDS011;3641;49.082;8.200;2022-09-04T03:38:04;4.95;;;2.42;;
7199;SDS011;3641;49.082;8.200;2022-09-04T03:40:40;5.47;;;2.70;;
7199;SDS011;3641;49.082;8.200;2022-09-04T03:43:22;9.20;;;3.33;;
7199;SDS011;3641;49.082;8.200;2022-09-04T03:45:58;4.68;;;2.70;;
7199;SDS011;3641;49.082;8.200;2022-09-04T03:48:41;5.43;;;2.80;;
7199;SDS011;3641;49.082;8.200;2022-09-04T03:51:18;9.85;;;3.03;;
7199;SDS011;3641;49.082;8.200;2022-09-04T03:53:52;9.95;;;4.25;;
7199;SDS011;3641;49.082;8.200;2022-09-04T03:56:34;9.55;;;4.45;;
7199;SDS011;3641;49.082;8.200;2022-09-04T03:59:14;14.00;;;5.47;;
7199;SDS011;3641;49.082;8.200;2022-09-04T04:01:56;11.25;;;6.05;;
7199;SDS011;3641;49.082;8.200;2022-09-04T04:04:48;8.60;;;5.00;;
7199;SDS011;3641;49.082;8.200;2022-09-04T04:07:30;8.95;;;4.32;;
7199;SDS011;3641;49.082;8.200;2022-09-04T04:10:20;7.93;;;4.22;;
7199;SDS011;3641;49.082;8.200;2022-09-04T04:13:20;8.48;;;3.50;;
7199;SDS011;3641;49.082;8.200;2022-09-04T04:16:02;6.28;;;2.67;;
7199;SDS011;3641;49.082;8.200;2022-09-04T04:18:46;6.53;;;2.28;;
7199;SDS011;3641;49.082;8.200;2022-09-04T04:21:26;8.52;;;2.90;;
7199;SDS011;3641;49.082;8.200;2022-09-04T04:26:51;11.23;;;4.47;;
7199;SDS011;3641;49.082;8.200;2022-09-04T04:29:47;31.23;;;5.57;;
7199;SDS011;3641;49.082;8.200;2022-09-04T04:32:40;14.48;;;5.32;;
7199;SDS011;3641;49.082;8.200;2022-09-04T04:35:22;9.45;;;4.90;;
7199;SDS011;3641;49.082;8.200;2022-09-04T04:38:05;20.00;;;5.07;;
7199;SDS011;3641;49.082;8.200;2022-09-04T04:40:48;16.67;;;5.43;;
7199;SDS011;3641;49.082;8.200;2022-09-04T04:43:25;9.13;;;5.07;;
7199;SDS011;3641;49.082;8.200;2022-09-04T04:46:00;8.40;;;4.90;;
7199;SDS011;3641;49.082;8.200;2022-09-04T04:51:41;7.35;;;4.22;;
7199;SDS011;3641;49.082;8.200;2022-09-04T04:54:28;9.75;;;4.40;;
7199;SDS011;3641;49.082;8.200;2022-09-04T04:57:16;11.73;;;4.68;;
7199;SDS011;3641;49.082;8.200;2022-09-04T04:59:52;9.30;;;4.97;;
7199;SDS011;3641;49.082;8.200;2022-09-04T05:02:30;13.00;;;5.15;;
7199;SDS011;3641;49.082;8.200;2022-09-04T05:05:06;9.52;;;4.72;;
7199;SDS011;3641;49.082;8.200;2022-09-04T05:07:39;13.52;;;5.38;;
7199;SDS011;3641;49.082;8.200;2022-09-04T05:10:18;8.75;;;5.00;;
7199;SDS011;3641;49.082;8.200;2022-09-04T05:12:50;32.30;;;5.75;;
7199;SDS011;3641;49.082;8.200;2022-09-04T05:15:23;14.20;;;5.70;;
7199;SDS011;3641;49.082;8.200;2022-09-04T05:17:59;34.05;;;5.20;;
7199;SDS011;3641;49.082;8.200;2022-09-04T05:20:34;11.10;;;5.20;;
7199;SDS011;3641;49.082;8.200;2022-09-04T05:23:11;9.07;;;4.88;;
7199;SDS011;3641;49.082;8.200;2022-09-04T05:25:49;11.73;;;4.82;;
7199;SDS011;3641;49.082;8.200;2022-09-04T05:28:25;8.88;;;4.80;;
7199;SDS011;3641;49.082;8.200;2022-09-04T05:31:03;9.43;;;5.50;;
7199;SDS011;3641;49.082;8.200;2022-09-04T05:33:39;9.80;;;5.30;;
7199;SDS011;3641;49.082;8.200;2022-09-04T05:36:15;8.57;;;5.07;;
7199;SDS011;3641;49.082;8.200;2022-09-04T05:38:54;8.43;;;5.25;;
7199;SDS011;3641;49.082;8.200;2022-09-04T05:41:45;10.02;;;5.35;;
7199;SDS011;3641;49.082;8.200;2022-09-04T05:44:28;22.45;;;5.45;;
7199;SDS011;3641;49.082;8.200;2022-09-04T05:47:15;9.50;;;5.32;;
7199;SDS011;3641;49.082;8.200;2022-09-04T05:49:58;12.07;;;5.32;;
7199;SDS011;3641;49.082;8.200;2022-09-04T05:52:46;14.82;;;6.18;;
7199;SDS011;3641;49.082;8.200;2022-09-04T05:55:30;9.95;;;5.35;;
7199;SDS011;3641;49.082;8.200;2022-09-04T05:58:27;10.02;;;5.88;;
7199;SDS011;3641;49.082;8.200;2022-09-04T06:01:17;11.30;;;5.72;;
7199;SDS011;3641;49.082;8.200;2022-09-04T06:03:57;9.23;;;5.38;;
7199;SDS011;3641;49.082;8.200;2022-09-04T06:06:40;11.88;;;5.72;;
7199;SDS011;3641;49.082;8.200;2022-09-04T06:14:56;12.60;;;6.68;;
7199;SDS011;3641;49.082;8.200;2022-09-04T06:17:36;11.48;;;6.95;;
7199;SDS011;3641;49.082;8.200;2022-09-04T06:26:30;13.75;;;7.95;;
7199;SDS011;3641;49.082;8.200;2022-09-04T06:29:23;14.68;;;8.77;;
7199;SDS011;3641;49.082;8.200;2022-09-04T06:35:17;11.65;;;7.50;;
7199;SDS011;3641;49.082;8.200;2022-09-04T06:37:59;11.80;;;7.38;;
7199;SDS011;3641;49.082;8.200;2022-09-04T06:40:41;12.32;;;7.55;;
7199;SDS011;3641;49.082;8.200;2022-09-04T06:43:23;12.15;;;7.97;;
7199;SDS011;3641;49.082;8.200;2022-09-04T06:46:00;10.77;;;7.90;;
7199;SDS011;3641;49.082;8.200;2022-09-04T06:48:43;11.85;;;7.88;;
7199;SDS011;3641;49.082;8.200;2022-09-04T06:51:21;13.23;;;7.88;;
7199;SDS011;3641;49.082;8.200;2022-09-04T06:54:03;13.68;;;8.00;;
7199;SDS011;3641;49.082;8.200;2022-09-04T06:56:44;11.77;;;8.25;;
7199;SDS011;3641;49.082;8.200;2022-09-04T07:02:13;13.18;;;8.88;;
7199;SDS011;3641;49.082;8.200;2022-09-04T07:04:53;11.10;;;7.57;;
7199;SDS011;3641;49.082;8.200;2022-09-04T07:07:33;11.40;;;7.70;;
7199;SDS011;3641;49.082;8.200;2022-09-04T07:10:07;11.93;;;8.20;;
7199;SDS011;3641;49.082;8.200;2022-09-04T07:15:45;18.95;;;10.43;;
7199;SDS011;3641;49.082;8.200;2022-09-04T07:18:32;14.10;;;9.40;;
7199;SDS011;3641;49.082;8.200;2022-09-04T07:21:14;13.90;;;9.82;;
7199;SDS011;3641;49.082;8.200;2022-09-04T07:23:47;12.02;;;9.25;;
7199;SDS011;3641;49.082;8.200;2022-09-04T07:26:19;13.95;;;9.80;;
7199;SDS011;3641;49.082;8.200;2022-09-04T07:28:55;12.02;;;8.73;;
7199;SDS011;3641;49.082;8.200;2022-09-04T07:31:33;12.55;;;8.77;;
7199;SDS011;3641;49.082;8.200;2022-09-04T07:34:10;13.70;;;9.27;;
7199;SDS011;3641;49.082;8.200;2022-09-04T07:36:45;12.02;;;8.95;;
7199;SDS011;3641;49.082;8.200;2022-09-04T07:39:19;15.15;;;9.02;;
7199;SDS011;3641;49.082;8.200;2022-09-04T07:41:52;12.95;;;8.52;;
7199;SDS011;3641;49.082;8.200;2022-09-04T07:44:25;11.63;;;7.90;;
7199;SDS011;3641;49.082;8.200;2022-09-04T07:47:01;12.55;;;9.00;;
7199;SDS011;3641;49.082;8.200;2022-09-04T07:49:41;13.68;;;8.05;;
7199;SDS011;3641;49.082;8.200;2022-09-04T07:52:16;13.90;;;9.32;;
7199;SDS011;3641;49.082;8.200;2022-09-04T07:57:51;14.50;;;8.50;;
7199;SDS011;3641;49.082;8.200;2022-09-04T08:00:42;17.27;;;8.20;;
7199;SDS011;3641;49.082;8.200;2022-09-04T08:03:27;10.55;;;7.22;;
7199;SDS011;3641;49.082;8.200;2022-09-04T08:06:07;12.88;;;7.50;;
7199;SDS011;3641;49.082;8.200;2022-09-04T08:08:54;9.82;;;6.13;;
7199;SDS011;3641;49.082;8.200;2022-09-04T08:11:48;7.63;;;5.40;;
7199;SDS011;3641;49.082;8.200;2022-09-04T08:20:36;8.60;;;5.32;;
7199;SDS011;3641;49.082;8.200;2022-09-04T08:23:14;7.10;;;4.97;;
7199;SDS011;3641;49.082;8.200;2022-09-04T08:25:53;8.80;;;5.18;;
7199;SDS011;3641;49.082;8.200;2022-09-04T08:28:36;7.97;;;4.68;;
7199;SDS011;3641;49.082;8.200;2022-09-04T08:31:24;8.32;;;4.32;;
7199;SDS011;3641;49.082;8.200;2022-09-04T08:34:02;7.30;;;4.07;;
7199;SDS011;3641;49.082;8.200;2022-09-04T08:36:54;7.43;;;4.53;;
7199;SDS011;3641;49.082;8.200;2022-09-04T08:39:33;8.32;;;4.28;;
7199;SDS011;3641;49.082;8.200;2022-09-04T08:42:26;9.30;;;4.45;;
7199;SDS011;3641;49.082;8.200;2022-09-04T08:48:38;6.75;;;3.88;;
7199;SDS011;3641;49.082;8.200;2022-09-04T08:51:42;7.72;;;4.40;;
7199;SDS011;3641;49.082;8.200;2022-09-04T08:54:40;7.03;;;3.90;;
7199;SDS011;3641;49.082;8.200;2022-09-04T08:57:32;7.45;;;3.70;;
7199;SDS011;3641;49.082;8.200;2022-09-04T09:00:13;6.75;;;3.38;;
7199;SDS011;3641;49.082;8.200;2022-09-04T09:15:12;5.10;;;3.30;;
7199;SDS011;3641;49.082;8.200;2022-09-04T09:18:01;4.70;;;2.90;;
7199;SDS011;3641;49.082;8.200;2022-09-04T09:20:35;4.13;;;2.72;;
7199;SDS011;3641;49.082;8.200;2022-09-04T09:23:14;4.95;;;2.60;;
7199;SDS011;3641;49.082;8.200;2022-09-04T09:25:48;3.95;;;2.30;;
7199;SDS011;3641;49.082;8.200;2022-09-04T09:31:41;5.28;;;2.47;;
7199;SDS011;3641;49.082;8.200;2022-09-04T09:34:44;4.28;;;2.22;;
7199;SDS011;3641;49.082;8.200;2022-09-04T09:37:43;3.65;;;2.17;;
7199;SDS011;3641;49.082;8.200;2022-09-04T09:40:41;4.10;;;2.50;;
7199;SDS011;3641;49.082;8.200;2022-09-04T09:43:40;4.13;;;2.50;;
7199;SDS011;3641;49.082;8.200;2022-09-04T09:49:55;4.18;;;2.50;;
7199;SDS011;3641;49.082;8.200;2022-09-04T09:52:56;6.55;;;2.08;;
7199;SDS011;3641;49.082;8.200;2022-09-04T09:56:01;2.83;;;2.13;;
7199;SDS011;3641;49.082;8.200;2022-09-04T10:02:06;4.90;;;2.30;;
7199;SDS011;3641;49.082;8.200;2022-09-04T10:08:01;4.35;;;2.50;;
7199;SDS011;3641;49.082;8.200;2022-09-04T10:13:57;5.65;;;2.53;;
7199;SDS011;3641;49.082;8.200;2022-09-04T10:16:50;3.38;;;2.10;;
7199;SDS011;3641;49.082;8.200;2022-09-04T10:19:40;4.63;;;2.50;;
7199;SDS011;3641;49.082;8.200;2022-09-04T10:22:26;5.10;;;2.20;;
7199;SDS011;3641;49.082;8.200;2022-09-04T10:25:20;5.13;;;2.35;;
7199;SDS011;3641;49.082;8.200;2022-09-04T10:28:21;4.72;;;2.30;;
7199;SDS011;3641;49.082;8.200;2022-09-04T10:31:18;3.88;;;2.30;;
7199;SDS011;3641;49.082;8.200;2022-09-04T10:33:59;3.88;;;2.33;;
7199;SDS011;3641;49.082;8.200;2022-09-04T10:36:41;3.50;;;2.30;;
7199;SDS011;3641;49.082;8.200;2022-09-04T10:39:19;3.25;;;2.05;;
7199;SDS011;3641;49.082;8.200;2022-09-04T10:42:19;7.00;;;2.20;;
7199;SDS011;3641;49.082;8.200;2022-09-04T10:45:06;2.83;;;1.92;;
7199;SDS011;3641;49.082;8.200;2022-09-04T10:47:48;3.90;;;1.80;;
7199;SDS011;3641;49.082;8.200;2022-09-04T10:50:33;3.58;;;2.10;;
7199;SDS011;3641;49.082;8.200;2022-09-04T10:53:16;3.95;;;1.90;;
7199;SDS011;3641;49.082;8.200;2022-09-04T10:56:04;2.78;;;1.88;;
7199;SDS011;3641;49.082;8.200;2022-09-04T10:58:42;4.20;;;1.70;;
7199;SDS011;3641;49.082;8.200;2022-09-04T11:01:34;5.00;;;1.65;;
7199;SDS011;3641;49.082;8.200;2022-09-04T11:04:29;4.93;;;1.70;;
7199;SDS011;3641;49.082;8.200;2022-09-04T11:07:21;2.65;;;1.67;;
7199;SDS011;3641;49.082;8.200;2022-09-04T11:12:59;5.45;;;2.10;;
7199;SDS011;3641;49.082;8.200;2022-09-04T11:15:59;5.25;;;2.78;;
7199;SDS011;3641;49.082;8.200;2022-09-04T11:31:27;5.47;;;2.20;;
7199;SDS011;3641;49.082;8.200;2022-09-04T11:34:11;4.13;;;2.10;;
7199;SDS011;3641;49.082;8.200;2022-09-04T11:37:02;4.80;;;2.08;;
7199;SDS011;3641;49.082;8.200;2022-09-04T11:40:01;3.88;;;1.70;;
7199;SDS011;3641;49.082;8.200;2022-09-04T11:42:45;3.13;;;1.80;;
7199;SDS011;3641;49.082;8.200;2022-09-04T11:45:36;3.50;;;1.65;;
7199;SDS011;3641;49.082;8.200;2022-09-04T11:48:20;3.78;;;1.60;;
7199;SDS011;3641;49.082;8.200;2022-09-04T11:51:13;2.97;;;1.27;;
7199;SDS011;3641;49.082;8.200;2022-09-04T11:57:23;3.35;;;1.48;;
7199;SDS011;3641;49.082;8.200;2022-09-04T12:06:06;2.30;;;1.30;;
7199;SDS011;3641;49.082;8.200;2022-09-04T12:08:55;2.30;;;1.50;;
7199;SDS011;3641;49.082;8.200;2022-09-04T12:11:56;2.17;;;1.35;;
7199;SDS011;3641;49.082;8.200;2022-09-04T12:17:49;2.40;;;1.48;;
7199;SDS011;3641;49.082;8.200;2022-09-04T12:20:51;3.10;;;1.42;;
7199;SDS011;3641;49.082;8.200;2022-09-04T12:23:39;1.67;;;1.25;;
7199;SDS011;3641;49.082;8.200;2022-09-04T12:26:39;2.45;;;1.50;;
7199;SDS011;3641;49.082;8.200;2022-09-04T12:35:39;1.90;;;1.35;;
7199;SDS011;3641;49.082;8.200;2022-09-04T12:38:22;2.97;;;1.33;;
7199;SDS011;3641;49.082;8.200;2022-09-04T12:41:00;1.95;;;1.27;;
7199;SDS011;3641;49.082;8.200;2022-09-04T12:43:37;2.28;;;1.55;;
7199;SDS011;3641;49.082;8.200;2022-09-04T12:46:14;3.28;;;1.23;;
7199;SDS011;3641;49.082;8.200;2022-09-04T12:49:02;2.20;;;1.30;;
7199;SDS011;3641;49.082;8.200;2022-09-04T12:51:51;3.33;;;1.42;;
7199;SDS011;3641;49.082;8.200;2022-09-04T12:54:24;2.85;;;1.40;;
7199;SDS011;3641;49.082;8.200;2022-09-04T12:57:04;4.28;;;1.40;;
7199;SDS011;3641;49.082;8.200;2022-09-04T12:59:46;1.88;;;1.20;;
7199;SDS011;3641;49.082;8.200;2022-09-04T13:02:31;3.13;;;1.67;;
7199;SDS011;3641;49.082;8.200;2022-09-04T13:05:09;3.33;;;1.58;;
7199;SDS011;3641;49.082;8.200;2022-09-04T13:07:58;2.55;;;1.40;;
7199;SDS011;3641;49.082;8.200;2022-09-04T13:10:35;3.28;;;1.30;;
7199;SDS011;3641;49.082;8.200;2022-09-04T13:13:11;3.65;;;1.40;;
7199;SDS011;3641;49.082;8.200;2022-09-04T13:15:48;2.38;;;1.60;;
7199;SDS011;3641;49.082;8.200;2022-09-04T13:18:24;3.17;;;1.30;;
7199;SDS011;3641;49.082;8.200;2022-09-04T13:21:06;2.15;;;1.50;;
7199;SDS011;3641;49.082;8.200;2022-09-04T13:23:46;3.80;;;1.30;;
7199;SDS011;3641;49.082;8.200;2022-09-04T13:26:32;2.45;;;1.48;;
7199;SDS011;3641;49.082;8.200;2022-09-04T13:29:12;1.67;;;1.23;;
7199;SDS011;3641;49.082;8.200;2022-09-04T13:31:56;2.53;;;1.38;;
7199;SDS011;3641;49.082;8.200;2022-09-04T13:34:33;3.53;;;1.20;;
7199;SDS011;3641;49.082;8.200;2022-09-04T13:37:19;2.10;;;1.27;;
7199;SDS011;3641;49.082;8.200;2022-09-04T13:39:57;3.35;;;1.20;;
7199;SDS011;3641;49.082;8.200;2022-09-04T13:45:42;3.80;;;1.50;;
7199;SDS011;3641;49.082;8.200;2022-09-04T13:48:12;2.53;;;1.30;;
7199;SDS011;3641;49.082;8.200;2022-09-04T13:50:46;1.90;;;1.20;;
7199;SDS011;3641;49.082;8.200;2022-09-04T13:53:21;4.55;;;1.27;;
7199;SDS011;3641;49.082;8.200;2022-09-04T13:55:51;2.00;;;1.40;;
7199;SDS011;3641;49.082;8.200;2022-09-04T13:58:22;2.10;;;1.52;;
7199;SDS011;3641;49.082;8.200;2022-09-04T14:00:56;3.08;;;1.40;;
7199;SDS011;3641;49.082;8.200;2022-09-04T14:03:28;2.65;;;1.42;;
7199;SDS011;3641;49.082;8.200;2022-09-04T14:06:00;1.95;;;1.45;;
7199;SDS011;3641;49.082;8.200;2022-09-04T14:08:30;2.72;;;1.30;;
7199;SDS011;3641;49.082;8.200;2022-09-04T14:11:03;3.22;;;1.38;;
7199;SDS011;3641;49.082;8.200;2022-09-04T14:13:51;2.05;;;1.23;;
7199;SDS011;3641;49.082;8.200;2022-09-04T14:16:36;2.97;;;1.50;;
7199;SDS011;3641;49.082;8.200;2022-09-04T14:19:12;2.17;;;1.30;;
7199;SDS011;3641;49.082;8.200;2022-09-04T14:21:52;4.57;;;1.52;;
7199;SDS011;3641;49.082;8.200;2022-09-04T14:24:33;5.18;;;1.40;;
7199;SDS011;3641;49.082;8.200;2022-09-04T14:27:07;2.83;;;1.50;;
7199;SDS011;3641;49.082;8.200;2022-09-04T14:29:42;4.55;;;1.50;;
7199;SDS011;3641;49.082;8.200;2022-09-04T14:32:33;3.00;;;1.40;;
7199;SDS011;3641;49.082;8.200;2022-09-04T14:35:11;2.30;;;1.40;;
7199;SDS011;3641;49.082;8.200;2022-09-04T14:37:49;3.25;;;1.38;;
7199;SDS011;3641;49.082;8.200;2022-09-04T14:40:32;2.72;;;1.50;;
7199;SDS011;3641;49.082;8.200;2022-09-04T14:43:03;2.78;;;1.30;;
7199;SDS011;3641;49.082;8.200;2022-09-04T14:45:53;3.22;;;1.25;;
7199;SDS011;3641;49.082;8.200;2022-09-04T14:48:29;3.55;;;1.25;;
7199;SDS011;3641;49.082;8.200;2022-09-04T14:51:07;3.25;;;1.55;;
7199;SDS011;3641;49.082;8.200;2022-09-04T14:53:39;1.55;;;1.15;;
7199;SDS011;3641;49.082;8.200;2022-09-04T14:56:25;2.17;;;1.40;;
7199;SDS011;3641;49.082;8.200;2022-09-04T14:58:58;2.17;;;1.30;;
7199;SDS011;3641;49.082;8.200;2022-09-04T15:01:32;1.38;;;1.20;;
7199;SDS011;3641;49.082;8.200;2022-09-04T15:04:04;2.50;;;1.38;;
7199;SDS011;3641;49.082;8.200;2022-09-04T15:06:39;2.50;;;1.40;;
7199;SDS011;3641;49.082;8.200;2022-09-04T15:09:15;3.20;;;1.20;;
7199;SDS011;3641;49.082;8.200;2022-09-04T15:11:49;2.25;;;1.30;;
7199;SDS011;3641;49.082;8.200;2022-09-04T15:14:21;2.17;;;1.30;;
7199;SDS011;3641;49.082;8.200;2022-09-04T15:16:53;3.47;;;1.20;;
7199;SDS011;3641;49.082;8.200;2022-09-04T15:19:27;3.83;;;1.52;;
7199;SDS011;3641;49.082;8.200;2022-09-04T15:22:04;2.60;;;1.20;;
7199;SDS011;3641;49.082;8.200;2022-09-04T15:24:39;2.67;;;1.20;;
7199;SDS011;3641;49.082;8.200;2022-09-04T15:27:19;2.88;;;1.17;;
7199;SDS011;3641;49.082;8.200;2022-09-04T15:30:00;1.80;;;1.33;;
7199;SDS011;3641;49.082;8.200;2022-09-04T15:32:31;2.83;;;1.20;;
7199;SDS011;3641;49.082;8.200;2022-09-04T15:35:10;2.28;;;1.20;;
7199;SDS011;3641;49.082;8.200;2022-09-04T15:37:41;2.22;;;1.20;;
7199;SDS011;3641;49.082;8.200;2022-09-04T15:40:11;5.43;;;1.50;;
7199;SDS011;3641;49.082;8.200;2022-09-04T15:42:53;3.63;;;1.30;;
7199;SDS011;3641;49.082;8.200;2022-09-04T15:45:26;2.65;;;1.40;;
7199;SDS011;3641;49.082;8.200;2022-09-04T15:48:15;2.22;;;1.27;;
7199;SDS011;3641;49.082;8.200;2022-09-04T15:50:49;4.57;;;1.30;;
7199;SDS011;3641;49.082;8.200;2022-09-04T15:53:22;3.05;;;1.50;;
7199;SDS011;3641;49.082;8.200;2022-09-04T15:56:04;5.53;;;1.35;;
7199;SDS011;3641;49.082;8.200;2022-09-04T15:58:38;2.15;;;1.20;;
7199;SDS011;3641;49.082;8.200;2022-09-04T16:01:13;2.17;;;1.10;;
7199;SDS011;3641;49.082;8.200;2022-09-04T16:03:45;3.50;;;1.45;;
7199;SDS011;3641;49.082;8.200;2022-09-04T16:06:20;3.25;;;1.50;;
7199;SDS011;3641;49.082;8.200;2022-09-04T16:08:53;3.22;;;1.40;;
7199;SDS011;3641;49.082;8.200;2022-09-04T16:11:25;3.30;;;1.30;;
7199;SDS011;3641;49.082;8.200;2022-09-04T16:13:58;3.10;;;1.30;;
7199;SDS011;3641;49.082;8.200;2022-09-04T16:16:28;3.33;;;1.30;;
7199;SDS011;3641;49.082;8.200;2022-09-04T16:19:00;2.00;;;1.27;;
7199;SDS011;3641;49.082;8.200;2022-09-04T16:21:38;2.42;;;1.20;;
7199;SDS011;3641;49.082;8.200;2022-09-04T16:24:13;2.33;;;1.45;;
7199;SDS011;3641;49.082;8.200;2022-09-04T16:26:44;5.70;;;1.27;;
7199;SDS011;3641;49.082;8.200;2022-09-04T16:29:18;1.38;;;1.08;;
7199;SDS011;3641;49.082;8.200;2022-09-04T16:31:52;2.28;;;1.35;;
7199;SDS011;3641;49.082;8.200;2022-09-04T16:34:22;1.90;;;1.08;;
7199;SDS011;3641;49.082;8.200;2022-09-04T16:36:51;4.28;;;1.30;;
7199;SDS011;3641;49.082;8.200;2022-09-04T16:39:25;3.80;;;1.40;;
7199;SDS011;3641;49.082;8.200;2022-09-04T16:42:06;2.78;;;1.40;;
7199;SDS011;3641;49.082;8.200;2022-09-04T16:44:42;3.03;;;1.33;;
7199;SDS011;3641;49.082;8.200;2022-09-04T16:47:13;3.55;;;1.20;;
7199;SDS011;3641;49.082;8.200;2022-09-04T16:49:50;2.28;;;1.10;;
7199;SDS011;3641;49.082;8.200;2022-09-04T16:52:28;1.92;;;1.40;;
7199;SDS011;3641;49.082;8.200;2022-09-04T16:55:02;2.88;;;1.10;;
7199;SDS011;3641;49.082;8.200;2022-09-04T16:57:36;2.50;;;1.27;;
7199;SDS011;3641;49.082;8.200;2022-09-04T17:00:10;2.40;;;1.33;;
7199;SDS011;3641;49.082;8.200;2022-09-04T17:02:42;2.38;;;1.30;;
7199;SDS011;3641;49.082;8.200;2022-09-04T17:05:14;4.93;;;1.33;;
7199;SDS011;3641;49.082;8.200;2022-09-04T17:07:48;1.70;;;1.20;;
7199;SDS011;3641;49.082;8.200;2022-09-04T17:10:25;1.52;;;1.10;;
7199;SDS011;3641;49.082;8.200;2022-09-04T17:12:58;2.45;;;1.30;;
7199;SDS011;3641;49.082;8.200;2022-09-04T17:15:32;1.42;;;1.10;;
7199;SDS011;3641;49.082;8.200;2022-09-04T17:18:08;2.22;;;1.38;;
7199;SDS011;3641;49.082;8.200;2022-09-04T17:20:37;5.72;;;1.63;;
7199;SDS011;3641;49.082;8.200;2022-09-04T17:23:12;1.88;;;1.20;;
7199;SDS011;3641;49.082;8.200;2022-09-04T17:25:46;3.95;;;1.38;;
7199;SDS011;3641;49.082;8.200;2022-09-04T17:28:23;4.43;;;1.52;;
7199;SDS011;3641;49.082;8.200;2022-09-04T17:31:00;2.75;;;1.40;;
7199;SDS011;3641;49.082;8.200;2022-09-04T17:33:31;2.45;;;1.30;;
7199;SDS011;3641;49.082;8.200;2022-09-04T17:36:07;5.00;;;1.30;;
7199;SDS011;3641;49.082;8.200;2022-09-04T17:38:37;3.97;;;1.48;;
7199;SDS011;3641;49.082;8.200;2022-09-04T17:41:13;3.58;;;1.30;;
7199;SDS011;3641;49.082;8.200;2022-09-04T17:43:48;2.30;;;1.33;;
7199;SDS011;3641;49.082;8.200;2022-09-04T17:46:36;2.63;;;1.45;;
7199;SDS011;3641;49.082;8.200;2022-09-04T17:49:09;2.40;;;1.50;;
7199;SDS011;3641;49.082;8.200;2022-09-04T17:51:41;3.92;;;1.30;;
7199;SDS011;3641;49.082;8.200;2022-09-04T17:54:14;7.10;;;1.60;;
7199;SDS011;3641;49.082;8.200;2022-09-04T17:56:43;3.78;;;1.70;;
7199;SDS011;3641;49.082;8.200;2022-09-04T17:59:15;3.00;;;1.58;;
7199;SDS011;3641;49.082;8.200;2022-09-04T18:01:56;2.92;;;1.58;;
7199;SDS011;3641;49.082;8.200;2022-09-04T18:04:29;3.50;;;1.65;;
7199;SDS011;3641;49.082;8.200;2022-09-04T18:07:03;4.45;;;1.70;;
7199;SDS011;3641;49.082;8.200;2022-09-04T18:09:38;4.03;;;1.38;;
7199;SDS011;3641;49.082;8.200;2022-09-04T18:12:12;2.40;;;1.40;;
7199;SDS011;3641;49.082;8.200;2022-09-04T18:14:46;2.50;;;1.67;;
7199;SDS011;3641;49.082;8.200;2022-09-04T18:17:31;5.03;;;1.83;;
7199;SDS011;3641;49.082;8.200;2022-09-04T18:20:04;3.10;;;2.00;;
7199;SDS011;3641;49.082;8.200;2022-09-04T18:25:45;9.18;;;1.90;;
7199;SDS011;3641;49.082;8.200;2022-09-04T18:28:18;3.50;;;1.80;;